createdAt,value
2022-08-07T00:02:39.723Z,61.33
2022-08-07T00:05:05.824Z,61.16
2022-08-07T00:07:40.543Z,61.56
2022-08-07T00:10:26.082Z,61.13
2022-08-07T00:13:00.238Z,60.56
2022-08-07T00:15:37.725Z,61.08
2022-08-07T00:18:24.049Z,61.31
2022-08-07T00:21:01.876Z,61.48
2022-08-07T00:23:36.773Z,61.66
2022-08-07T00:26:18.607Z,61.52
2022-08-07T00:29:01.303Z,61.93
2022-08-07T00:31:37.340Z,62.86
2022-08-07T00:34:08.541Z,62.54
2022-08-07T00:36:38.516Z,62.39
2022-08-07T00:39:12.838Z,62.45
2022-08-07T00:42:01.812Z,63.54
2022-08-07T00:44:34.984Z,62.67
2022-08-07T00:47:15.549Z,62.90
2022-08-07T00:50:19.096Z,63.12
2022-08-07T00:52:48.285Z,62.96
2022-08-07T00:55:46.488Z,62.86
2022-08-07T00:58:06.959Z,62.87
2022-08-07T01:00:36.329Z,62.83
2022-08-07T01:03:05.794Z,63.40
2022-08-07T01:05:36.543Z,63.90
2022-08-07T01:08:08.971Z,63.93
2022-08-07T01:10:39.427Z,64.18
2022-08-07T01:13:16.866Z,64.27
2022-08-07T01:16:05.727Z,64.04
2022-08-07T01:18:35.571Z,64.55
2022-08-07T01:21:22.753Z,64.99
2022-08-07T01:23:52.794Z,64.73
2022-08-07T01:26:23.232Z,65.51
2022-08-07T01:28:56.511Z,65.09
2022-08-07T01:31:42.327Z,65.05
2022-08-07T01:34:18.593Z,65.10
2022-08-07T01:36:52.663Z,65.60
2022-08-07T01:39:40.504Z,65.37
2022-08-07T01:42:39.810Z,65.13
2022-08-07T01:45:15.867Z,64.44
2022-08-07T01:48:29.896Z,65.70
2022-08-07T01:50:42.845Z,65.45
2022-08-07T01:53:21.740Z,65.06
2022-08-07T01:56:06.592Z,65.04
2022-08-07T01:58:40.848Z,65.00
2022-08-07T02:01:25.709Z,64.94
2022-08-07T02:04:06.536Z,65.18
2022-08-07T02:06:37.275Z,65.24
2022-08-07T02:09:08.332Z,65.31
2022-08-07T02:12:05.073Z,65.39
2022-08-07T02:14:35.742Z,66.38
2022-08-07T02:17:06.165Z,66.48
2022-08-07T02:20:04.606Z,66.18
2022-08-07T02:22:27.926Z,66.23
2022-08-07T02:24:59.086Z,66.24
2022-08-07T02:27:34.754Z,65.35
2022-08-07T02:30:07.086Z,65.53
2022-08-07T02:33:00.206Z,65.48
2022-08-07T02:36:29.322Z,65.81
2022-08-07T02:38:19.110Z,65.99
2022-08-07T02:40:58.773Z,66.24
2022-08-07T02:43:29.460Z,66.25
2022-08-07T02:46:02.396Z,66.30
2022-08-07T02:48:32.661Z,66.72
2022-08-07T02:51:28.963Z,66.34
2022-08-07T02:53:59.107Z,66.04
2022-08-07T02:56:29.102Z,65.95
2022-08-07T02:59:03.810Z,65.66
2022-08-07T03:01:39.273Z,65.76
2022-08-07T03:04:12.808Z,66.48
2022-08-07T03:06:44.581Z,66.11
2022-08-07T03:09:42.141Z,66.44
2022-08-07T03:12:21.756Z,65.98
2022-08-07T03:14:52.898Z,66.26
2022-08-07T03:17:22.387Z,66.46
2022-08-07T03:19:55.075Z,65.96
2022-08-07T03:22:29.652Z,66.27
2022-08-07T03:25:00.494Z,66.77
2022-08-07T03:27:59.127Z,65.83
2022-08-07T03:30:20.632Z,66.45
2022-08-07T03:32:58.754Z,66.44
2022-08-07T03:35:43.395Z,66.12
2022-08-07T03:38:20.938Z,65.81
2022-08-07T03:40:57.265Z,66.48
2022-08-07T03:43:32.350Z,66.72
2022-08-07T03:46:03.212Z,66.52
2022-08-07T03:48:32.891Z,66.72
2022-08-07T03:51:03.321Z,66.74
2022-08-07T03:54:05.499Z,66.68
2022-08-07T03:56:33.402Z,67.11
2022-08-07T03:59:09.436Z,67.09
2022-08-07T04:01:45.780Z,67.97
2022-08-07T04:04:17.437Z,67.58
2022-08-07T04:06:50.837Z,67.44
2022-08-07T04:09:23.413Z,67.37
2022-08-07T04:12:25.795Z,67.65
2022-08-07T04:14:46.289Z,68.16
2022-08-07T04:17:21.282Z,68.15
2022-08-07T04:19:54.507Z,67.90
2022-08-07T04:22:27.505Z,67.54
2022-08-07T04:25:01.652Z,67.90
2022-08-07T04:27:39.321Z,67.21
2022-08-07T04:30:35.684Z,66.89
2022-08-07T04:33:13.989Z,67.08
2022-08-07T04:35:50.212Z,67.19
2022-08-07T04:38:20.012Z,67.85
2022-08-07T04:40:51.954Z,67.94
2022-08-07T04:43:53.482Z,67.78
2022-08-07T04:46:29.290Z,66.77
2022-08-07T04:49:25.602Z,66.80
2022-08-07T04:52:04.160Z,67.05
2022-08-07T04:54:37.581Z,66.37
2022-08-07T04:58:16.264Z,66.38
2022-08-07T05:00:36.743Z,66.32
2022-08-07T05:04:00.370Z,66.35
2022-08-07T05:06:20.148Z,66.07
2022-08-07T05:09:19.354Z,67.00
2022-08-07T05:12:10.797Z,65.63
2022-08-07T05:14:53.976Z,65.81
2022-08-07T05:17:52.480Z,65.61
2022-08-07T05:20:24.795Z,64.91
2022-08-07T05:23:00.245Z,64.55
2022-08-07T05:26:10.582Z,64.71
2022-08-07T05:28:23.047Z,64.55
2022-08-07T05:30:57.307Z,64.42
2022-08-07T05:33:31.373Z,64.28
2022-08-07T05:36:06.698Z,64.33
2022-08-07T05:39:00.495Z,63.70
2022-08-07T05:41:26.180Z,62.66
2022-08-07T05:44:15.935Z,62.81
2022-08-07T05:47:00.216Z,62.65
2022-08-07T05:49:40.965Z,61.93
2022-08-07T05:52:11.689Z,62.04
2022-08-07T05:54:44.587Z,62.10
2022-08-07T05:57:23.854Z,61.65
2022-08-07T05:59:57.746Z,60.96
2022-08-07T06:02:29.568Z,59.94
2022-08-07T06:05:05.686Z,59.13
2022-08-07T06:08:30.297Z,58.21
2022-08-07T06:10:26.375Z,58.10
2022-08-07T06:12:55.726Z,57.49
2022-08-07T06:15:42.258Z,57.32
2022-08-07T06:18:12.344Z,56.20
2022-08-07T06:20:50.421Z,55.02
2022-08-07T06:24:38.408Z,54.61
2022-08-07T06:26:27.484Z,54.12
2022-08-07T06:29:01.093Z,53.34
2022-08-07T06:31:46.974Z,53.61
2022-08-07T06:34:20.730Z,53.31
2022-08-07T06:36:51.998Z,52.62
2022-08-07T06:40:17.252Z,52.13
2022-08-07T06:42:19.300Z,52.74
2022-08-07T06:44:51.161Z,53.31
2022-08-07T06:47:21.441Z,52.21
2022-08-07T06:49:58.684Z,52.04
2022-08-07T06:52:35.752Z,51.29
2022-08-07T06:55:31.842Z,51.37
2022-08-07T06:58:04.554Z,51.28
2022-08-07T07:00:43.277Z,50.07
2022-08-07T07:03:14.333Z,50.80
2022-08-07T07:06:03.282Z,49.81
2022-08-07T07:08:35.174Z,49.58
2022-08-07T07:11:14.479Z,48.44
2022-08-07T07:14:01.727Z,47.65
2022-08-07T07:16:34.165Z,46.47
2022-08-07T07:19:55.799Z,47.56
2022-08-07T07:22:33.768Z,46.94
2022-08-07T07:25:02.759Z,46.04
2022-08-07T07:27:35.598Z,44.93
2022-08-07T07:30:37.832Z,44.32
2022-08-07T07:33:08.831Z,43.83
2022-08-07T07:35:54.151Z,43.79
2022-08-07T07:38:32.954Z,44.05
2022-08-07T07:41:10.169Z,41.48
2022-08-07T07:44:13.947Z,41.23
2022-08-07T07:46:36.936Z,40.99
2022-08-07T07:50:34.082Z,40.21
2022-08-07T07:52:20.618Z,38.75
2022-08-07T07:54:53.092Z,37.60
2022-08-07T07:57:43.728Z,37.44
2022-08-07T08:00:29.063Z,37.92
2022-08-07T08:03:16.942Z,36.49
2022-08-07T08:06:00.397Z,35.61
2022-08-07T08:08:36.950Z,34.42
2022-08-07T08:11:16.173Z,32.80
2022-08-07T08:13:54.227Z,34.56
2022-08-07T08:16:29.818Z,35.80
2022-08-07T08:19:00.422Z,35.07
2022-08-07T08:22:02.650Z,33.87
2022-08-07T08:24:54.840Z,34.40
2022-08-07T08:27:39.422Z,33.73
2022-08-07T08:30:17.560Z,32.97
2022-08-07T08:33:02.972Z,31.94
2022-08-07T08:35:39.132Z,33.62
2022-08-07T08:38:18.090Z,32.78
2022-08-07T08:40:58.288Z,32.25
2022-08-07T08:43:42.052Z,32.51
2022-08-07T08:46:29.495Z,30.73
2022-08-07T08:49:32.949Z,31.64
2022-08-07T08:52:14.096Z,34.57
2022-08-07T08:54:57.971Z,33.96
2022-08-07T08:57:43.127Z,31.84
2022-08-07T09:00:15.168Z,31.47
2022-08-07T09:03:07.480Z,30.55
2022-08-07T09:05:58.788Z,31.25
2022-08-07T09:08:33.933Z,30.74
2022-08-07T09:11:24.190Z,30.63
2022-08-07T09:14:22.419Z,30.35
2022-08-07T09:17:05.578Z,30.24
2022-08-07T09:20:35.354Z,31.17
2022-08-07T09:24:32.368Z,32.23
2022-08-07T09:26:30.254Z,31.35
2022-08-07T09:30:06.308Z,32.69
2022-08-07T09:32:35.062Z,32.19
2022-08-07T09:36:01.190Z,31.98
2022-08-07T09:38:02.041Z,31.29
2022-08-07T09:40:38.641Z,32.01
2022-08-07T09:44:03.493Z,33.22
2022-08-07T09:47:49.842Z,31.59
2022-08-07T09:50:00.573Z,32.13
2022-08-07T09:52:48.573Z,32.18
2022-08-07T09:55:29.454Z,32.54
2022-08-07T09:58:32.608Z,31.91
2022-08-07T10:01:51.172Z,32.33
2022-08-07T10:04:38.213Z,32.17
2022-08-07T10:07:31.606Z,30.71
2022-08-07T10:10:21.028Z,31.57
2022-08-07T10:13:29.881Z,32.01
2022-08-07T10:16:15.111Z,31.28
2022-08-07T10:19:03.652Z,30.91
2022-08-07T10:22:16.057Z,31.37
2022-08-07T10:25:20.803Z,30.91
2022-08-07T10:28:29.873Z,31.19
2022-08-07T10:31:38.764Z,32.29
2022-08-07T10:34:41.064Z,31.47
2022-08-07T10:38:00.558Z,31.78
2022-08-07T10:40:34.031Z,31.84
2022-08-07T10:43:29.839Z,31.11
2022-08-07T10:46:09.415Z,32.64
2022-08-07T10:49:13.791Z,31.83
2022-08-07T10:52:12.682Z,32.62
2022-08-07T10:55:26.816Z,29.50
2022-08-07T10:58:13.647Z,30.28
2022-08-07T11:00:50.205Z,29.68
2022-08-07T11:03:37.321Z,30.47
2022-08-07T11:06:42.523Z,30.07
2022-08-07T11:10:08.855Z,29.95
2022-08-07T11:12:32.222Z,30.04
2022-08-07T11:15:17.260Z,30.56
2022-08-07T11:17:54.197Z,29.88
2022-08-07T11:20:29.546Z,29.72
2022-08-07T11:23:09.264Z,29.33
2022-08-07T11:25:48.165Z,29.75
2022-08-07T11:28:24.870Z,28.91
2022-08-07T11:30:54.314Z,28.95
2022-08-07T11:34:00.092Z,29.65
2022-08-07T11:36:41.675Z,29.58
2022-08-07T11:39:23.456Z,29.28
2022-08-07T11:42:19.501Z,28.31
2022-08-07T11:45:12.990Z,29.59
2022-08-07T11:47:59.027Z,29.97
2022-08-07T11:50:57.936Z,29.73
2022-08-07T11:54:01.764Z,29.04
2022-08-07T11:56:53.128Z,29.23
2022-08-07T12:00:10.083Z,29.94
2022-08-07T12:03:44.541Z,30.57
2022-08-07T12:06:37.639Z,29.05
2022-08-07T12:09:31.998Z,28.61
2022-08-07T12:12:13.785Z,29.78
2022-08-07T12:15:01.673Z,30.18
2022-08-07T12:17:37.232Z,30.31
2022-08-07T12:20:18.491Z,29.65
2022-08-07T12:24:05.736Z,29.35
2022-08-07T12:26:47.049Z,30.62
2022-08-07T12:29:38.179Z,29.74
2022-08-07T12:32:39.603Z,29.18
2022-08-07T12:35:11.953Z,29.64
2022-08-07T12:38:11.288Z,29.37
2022-08-07T12:40:47.560Z,29.75
2022-08-07T12:44:02.540Z,29.64
2022-08-07T12:46:26.378Z,29.89
2022-08-07T12:49:10.130Z,29.55
2022-08-07T12:52:14.548Z,30.41
2022-08-07T12:54:59.022Z,30.19
2022-08-07T12:57:38.955Z,30.21
2022-08-07T13:00:50.088Z,30.95
2022-08-07T13:04:00.648Z,30.34
2022-08-07T13:06:37.014Z,29.32
2022-08-07T13:10:21.532Z,30.57
2022-08-07T13:12:43.544Z,30.11
2022-08-07T13:15:51.188Z,30.13
2022-08-07T13:18:30.475Z,28.74
2022-08-07T13:21:12.585Z,30.09
2022-08-07T13:24:04.046Z,29.39
2022-08-07T13:26:46.073Z,28.92
2022-08-07T13:29:19.954Z,29.42
2022-08-07T13:32:32.404Z,30.23
2022-08-07T13:35:08.823Z,30.19
2022-08-07T13:37:58.641Z,29.45
2022-08-07T13:40:36.606Z,29.83
2022-08-07T13:43:15.402Z,30.25
2022-08-07T13:46:12.157Z,29.89
2022-08-07T13:48:40.730Z,30.38
2022-08-07T13:51:28.031Z,29.46
2022-08-07T13:54:03.732Z,29.81
2022-08-07T13:56:41.306Z,29.88
2022-08-07T13:59:27.577Z,30.28
2022-08-07T14:02:16.513Z,29.96
2022-08-07T14:04:55.115Z,30.22
2022-08-07T14:07:31.127Z,29.69
2022-08-07T14:10:15.650Z,29.63
2022-08-07T14:12:54.074Z,29.65
2022-08-07T14:15:35.241Z,29.16
2022-08-07T14:18:23.766Z,30.31
2022-08-07T14:21:20.953Z,29.78
2022-08-07T14:24:03.763Z,29.86
2022-08-07T14:26:40.729Z,30.11
2022-08-07T14:30:07.365Z,29.86
2022-08-07T14:32:13.287Z,29.76
2022-08-07T14:34:45.876Z,29.26
2022-08-07T14:37:18.985Z,30.02
2022-08-07T14:40:15.804Z,29.76
2022-08-07T14:43:55.239Z,30.06
2022-08-07T14:45:46.896Z,29.20
2022-08-07T14:48:20.400Z,28.52
2022-08-07T14:51:01.684Z,28.55
2022-08-07T14:56:30.090Z,29.27
2022-08-07T14:59:14.128Z,29.64
2022-08-07T15:01:54.361Z,29.13
2022-08-07T15:04:28.979Z,29.43
2022-08-07T15:10:00.765Z,29.18
2022-08-07T15:15:38.470Z,28.79
2022-08-07T15:21:08.305Z,29.33
2022-08-07T15:25:15.012Z,29.02
2022-08-07T15:26:55.666Z,28.99
2022-08-07T15:30:09.568Z,29.64
2022-08-07T15:32:17.643Z,29.28
2022-08-07T15:35:07.222Z,29.60
2022-08-07T15:38:04.813Z,29.58
2022-08-07T15:40:33.851Z,29.55
2022-08-07T15:43:53.537Z,29.99
2022-08-07T15:46:47.361Z,30.39
2022-08-07T15:50:03.986Z,30.12
2022-08-07T15:52:30.712Z,29.40
2022-08-07T15:55:03.337Z,29.27
2022-08-07T15:57:48.155Z,29.03
2022-08-07T16:00:31.100Z,29.54
2022-08-07T16:03:04.980Z,29.66
2022-08-07T16:05:34.731Z,29.48
2022-08-07T16:08:30.285Z,29.10
2022-08-07T16:11:27.240Z,29.81
2022-08-07T16:14:03.440Z,30.15
2022-08-07T16:16:57.816Z,30.03
2022-08-07T16:19:59.519Z,29.76
2022-08-07T16:22:33.882Z,30.04
2022-08-07T16:25:23.092Z,29.29
2022-08-07T16:30:05.662Z,29.63
2022-08-07T16:31:51.108Z,29.81
2022-08-07T16:34:48.811Z,29.81
2022-08-07T16:38:04.399Z,29.76
2022-08-07T16:40:35.370Z,30.31
2022-08-07T16:44:06.303Z,29.63
2022-08-07T16:47:07.843Z,29.66
2022-08-07T16:50:28.245Z,29.63
2022-08-07T16:53:55.393Z,30.01
2022-08-07T16:56:07.498Z,30.25
2022-08-07T16:59:14.450Z,29.73
2022-08-07T17:02:03.889Z,30.48
2022-08-07T17:04:51.016Z,30.75
2022-08-07T17:07:51.556Z,30.20
2022-08-07T17:10:33.912Z,30.41
2022-08-07T17:14:19.049Z,30.25
2022-08-07T17:17:01.110Z,30.19
2022-08-07T17:20:02.543Z,30.64
2022-08-07T17:22:37.764Z,30.93
2022-08-07T17:25:19.268Z,30.47
2022-08-07T17:28:10.099Z,30.42
2022-08-07T17:31:15.597Z,30.65
2022-08-07T17:34:17.950Z,30.06
2022-08-07T17:36:57.792Z,30.68
2022-08-07T17:39:57.698Z,30.67
2022-08-07T17:42:59.620Z,30.61
2022-08-07T17:45:46.696Z,30.35
2022-08-07T17:48:31.132Z,30.91
2022-08-07T17:51:21.569Z,31.05
2022-08-07T17:54:39.711Z,31.29
2022-08-07T17:57:32.035Z,30.83
2022-08-07T18:00:32.755Z,30.76
2022-08-07T18:03:25.623Z,31.12
2022-08-07T18:06:09.515Z,31.24
2022-08-07T18:09:01.857Z,31.53
2022-08-07T18:12:16.403Z,31.22
2022-08-07T18:14:56.374Z,31.73
2022-08-07T18:18:46.070Z,31.73
2022-08-07T18:21:12.638Z,31.31
2022-08-07T18:23:42.970Z,31.75
2022-08-07T18:26:17.462Z,32.01
2022-08-07T18:30:06.026Z,32.40
2022-08-07T18:32:31.545Z,32.13
2022-08-07T18:35:17.938Z,32.41
2022-08-07T18:38:59.368Z,32.76
2022-08-07T18:41:20.554Z,33.42
2022-08-07T18:44:09.218Z,32.96
2022-08-07T18:46:46.236Z,32.77
2022-08-07T18:50:30.206Z,32.95
2022-08-07T18:52:54.434Z,32.88
2022-08-07T18:55:40.597Z,33.40
2022-08-07T18:58:26.248Z,33.44
2022-08-07T19:01:09.230Z,33.91
2022-08-07T19:04:09.592Z,34.08
2022-08-07T19:06:53.255Z,34.51
2022-08-07T19:09:55.329Z,33.98
2022-08-07T19:13:10.094Z,34.29
2022-08-07T19:16:04.841Z,34.59
2022-08-07T19:18:45.096Z,35.31
2022-08-07T19:21:48.002Z,34.96
2022-08-07T19:24:30.040Z,35.55
2022-08-07T19:28:58.901Z,35.67
2022-08-07T19:31:05.897Z,35.68
2022-08-07T19:32:47.476Z,36.21
2022-08-07T19:35:24.612Z,36.00
2022-08-07T19:37:59.533Z,37.31
2022-08-07T19:40:33.419Z,36.78
2022-08-07T19:43:12.708Z,37.02
2022-08-07T19:46:04.698Z,36.88
2022-08-07T19:48:44.023Z,37.29
2022-08-07T19:51:19.589Z,37.45
2022-08-07T19:54:30.945Z,38.67
2022-08-07T19:57:56.638Z,38.47
2022-08-07T19:59:44.671Z,38.43
2022-08-07T20:02:19.716Z,38.48
2022-08-07T20:04:52.004Z,39.18
2022-08-07T20:07:47.566Z,40.07
2022-08-07T20:10:37.166Z,39.92
2022-08-07T20:13:23.773Z,40.27
2022-08-07T20:15:58.324Z,40.58
2022-08-07T20:18:32.507Z,40.94
2022-08-07T20:21:02.944Z,41.17
2022-08-07T20:23:43.223Z,41.20
2022-08-07T20:26:29.940Z,41.97
2022-08-07T20:29:10.750Z,42.01
2022-08-07T20:31:53.935Z,42.23
2022-08-07T20:34:49.266Z,42.69
2022-08-07T20:37:17.308Z,42.57
2022-08-07T20:40:02.219Z,42.87
2022-08-07T20:42:33.068Z,42.76
2022-08-07T20:45:04.586Z,43.37
2022-08-07T20:47:56.659Z,43.84
2022-08-07T20:50:30.555Z,44.34
2022-08-07T20:53:00.478Z,44.38
2022-08-07T20:55:32.224Z,44.65
2022-08-07T20:58:12.283Z,44.87
2022-08-07T21:00:56.196Z,45.42
2022-08-07T21:03:26.450Z,45.34
2022-08-07T21:06:03.698Z,45.72
2022-08-07T21:09:14.200Z,46.45
2022-08-07T21:11:50.961Z,45.80
2022-08-07T21:14:33.617Z,46.19
2022-08-07T21:18:02.950Z,46.74
2022-08-07T21:20:01.088Z,46.32
2022-08-07T21:22:37.543Z,46.83
2022-08-07T21:25:19.710Z,47.09
2022-08-07T21:28:11.206Z,47.39
2022-08-07T21:30:58.942Z,47.40
2022-08-07T21:33:55.230Z,47.57
2022-08-07T21:36:33.061Z,47.58
2022-08-07T21:39:48.130Z,48.37
2022-08-07T21:42:46.807Z,48.47
2022-08-07T21:46:10.419Z,48.36
2022-08-07T21:48:43.950Z,48.62
2022-08-07T21:51:34.472Z,48.51
2022-08-07T21:54:50.304Z,48.58
2022-08-07T21:57:44.484Z,49.17
2022-08-07T22:00:25.115Z,48.86
2022-08-07T22:03:18.760Z,49.22
2022-08-07T22:06:29.985Z,48.84
2022-08-07T22:09:01.118Z,48.63
2022-08-07T22:11:53.078Z,48.65
2022-08-07T22:14:36.298Z,48.61
2022-08-07T22:17:07.303Z,48.56
2022-08-07T22:19:58.880Z,48.88
2022-08-07T22:22:40.091Z,48.93
2022-08-07T22:25:28.726Z,48.32
2022-08-07T22:28:29.881Z,48.83
2022-08-07T22:31:09.582Z,49.04
2022-08-07T22:33:57.169Z,49.02
2022-08-07T22:36:52.596Z,48.95
2022-08-07T22:39:35.424Z,49.04
2022-08-07T22:42:30.382Z,49.06
2022-08-07T22:45:03.718Z,48.86
2022-08-07T22:48:31.720Z,49.94
2022-08-07T22:50:58.960Z,49.83
2022-08-07T22:54:06.305Z,50.43
2022-08-07T22:56:35.123Z,51.36
2022-08-07T22:59:20.075Z,51.78
2022-08-07T23:02:07.629Z,52.27
2022-08-07T23:04:56.693Z,52.62
2022-08-07T23:07:55.689Z,52.74
2022-08-07T23:11:04.511Z,52.99
2022-08-07T23:14:16.643Z,53.58
2022-08-07T23:16:55.562Z,52.96
2022-08-07T23:20:04.029Z,53.59
2022-08-07T23:23:12.167Z,54.02
2022-08-07T23:26:01.540Z,53.61
2022-08-07T23:29:03.606Z,54.12
2022-08-07T23:34:18.693Z,54.32
2022-08-07T23:35:14.481Z,54.64
2022-08-07T23:38:09.551Z,54.82
2022-08-07T23:41:09.441Z,54.92
2022-08-07T23:44:17.037Z,55.25
2022-08-07T23:47:00.147Z,54.81
2022-08-07T23:50:06.887Z,55.28
2022-08-07T23:53:17.343Z,55.40
2022-08-07T23:56:01.126Z,55.34
2022-08-07T23:58:42.285Z,55.68
